Scroll down
FLIGHT INFORMATION
PMDG Flight Operations

PFO720

At Arrival Gate

CYYZ
 KOSH
DATE: 2020-07-20
GATE:  -
GATE DEPARTURE: 15:42
TAKEOFF: 15:51
DATE: 2020-07-20
GATE:  -
LANDING: 17:01
GATE ARRIVAL: 17:05
FLIGHT DATA
Crew: 
Speed: 
481 kts
Altitude: 
36,003 ft
Stage Length: 
386.9 nm
Block Time: 
1.3 hrs
Flight Time: 
1.2 hrs
Fuel Used: 
7,998 lb
Cleared Route: CYYZ TETAD URSAL BESID NOSIK ZOHAN OSH CFBSM RW36
TRACK DATA
50,000 ft 1,000 kts
AIRCRAFT INFO AND CUMULATIVE STATS
Aircraft Type: 
B739ERSSW
Registration: 
SELCAL: 
MSN/LN: 
0 / 1
Total Flights: 
11
Total Block Time: 
40 hrs
Total Flight Time: 
38.2 hrs
Total Fuel Used: 
179,702 lb
DATALINK LOG | Newest first | Current as of: 2022-11-26 10:04:49
LABEL SEQUENCE CONTENT Dn/Up
QD070217:05 10▼ Dn
QC025817:01▼ Dn
2U3649KOSH 201553Z 30006KT 10SM CLR 22/13 A3002 RMK AO2 SLP156 T02220133, VATSIM INJECTION▲ Up
2S3734KOSH▼ Dn
460401/OV BESID /TM 1602 /FL250 /TP B739 /SK SCT /TA -22 /WV 270/51 /TB LGT /RM NONE▼ Dn
QB525015:51▼ Dn
5U4821KOSH 201526Z 00000KT 10SM 22/14 A3000 RMK ADVANCED INTERPOLATION▲ Up
5S4947KOSH▼ Dn
QA434115:42 18▼ Dn
A33946CLEARED TO KOSH VIA URSAL3 ZOHAN OSH. SQUAWK .▲ Up
Q03836[LINK ACK]▲ Up
Q03836[LINK TEST]▼ Dn


AIRCRAFT HISTORY
FLIGHT DATE FLIGHT NO. ORIGIN DESTINATION CLEARED ROUTE BLOCK TIME FLIGHT TIME FUEL USED PILOT
2020-12-19PFO2201SCEL SABE SCEL VAGOS EL250 EL401 ALBAL KOTNI BOBAP ETALU ISELU SINAL IREXA EDNAP ESNIM LOGAM PABAS ASADA SABE1.8 hrs1.5 hrs9,817 lbRoberto Stopnicki
2020-10-22PFO0001SKBO SCEL SKBO POVSO ROLUS IQT OSORA TEMOR LITUP ILNAM ETEBA LOMOL TOMIX OPKUL OGMAS EVLAR ISLOD ARI PUGOT IQQ REBOL FAG VADIX NENAT REBEP MORMI OGROS NIRNU ISGUD SIMOK SCEL5.1 hrs5 hrs24,977 lbAlex K.
2020-10-22PFO0001MMUN SKBO MMUN TAKUX OMIRO BONOS PELRA SPP SEKMA PML ARORO VASIL ABL SKBO3.1 hrs3 hrs15,240 lbAlex K.
2020-10-21PFO0001MZBZ MMUN 0.8 hrs0.7 hrs5,540 lbAlex K.
2020-10-21PFO0001TNCM MZBZ 3.5 hrs3.4 hrs20,057 lbAlex K.
2020-10-21PFO0001KBFI TNCM 11.9 hrs11.8 hrs34,064 lbAlex K.
2020-10-20PFO0001CYQD KBFI CYQD QD PIKLA KANEE LOSTT KBFI2.5 hrs2.4 hrs11,850 lbAlex K.
2020-10-17PFO1CYYT CYQD CYYT MUSAK BOBBS YFM YPO YNE REFEX KANEE DASBI LOSTT KBFI4.4 hrs4.3 hrs23,009 lbAlex K.
2020-08-07PFO1KOSH CYYT KOSH OSH GRB ASP MIILS YGR MIVAD PESDO PIGTA GAURA DUTOV GAURA RW293.6 hrs3.3 hrs16,602 lbSTEFAN DORDEVIC
2020-07-20PFO720CYYZ KOSH CYYZ TETAD URSAL BESID NOSIK ZOHAN OSH CFBSM RW361.3 hrs1.2 hrs7,998 lbKyle Weber
2020-03-05PFO304KMSP CYYZ 1.8 hrs1.5 hrs10,547 lbBig Swede